Time;durP1;ratioP1;P1;durP2;ratioP2;P2;SDS_P1;SDS_P2;PMS_P1;PMS_P2;Temp;Humidity;BMP_temperature;BMP_pressure;BME280_temperature;BME280_humidity;BME280_pressure;Samples;Min_cycle;Max_cycle;Signal;HPM_P1;HPM_P2
2023/01/21 00:01:00;;;;;;;52.22;19.90;;;;;;;-143.48;89.03;118439.88;5097338;28;20032;-68
2023/01/21 00:03:26;;;;;;;49.20;19.83;;;;;;;-143.48;88.27;118439.88;5097440;28;20024;-68
2023/01/21 00:05:51;;;;;;;49.38;20.40;;;;;;;-143.48;88.87;118439.88;5078965;28;20028;-68
2023/01/21 00:08:17;;;;;;;46.92;19.58;;;;;;;-143.48;88.54;118439.88;5097322;28;20024;-68
2023/01/21 00:10:42;;;;;;;46.72;18.38;;;;;;;-143.48;88.75;118439.88;5097190;28;20031;-68
2023/01/21 00:13:08;;;;;;;47.53;19.63;;;;;;;-143.48;89.43;118439.88;5097147;28;20059;-68
2023/01/21 00:15:35;;;;;;;51.75;19.45;;;;;;;-143.48;88.71;118439.88;5078898;28;20048;-68
2023/01/21 00:18:00;;;;;;;42.55;17.70;;;;;;;-143.48;88.56;118439.88;5078800;28;20513;-68
2023/01/21 00:20:25;;;;;;;46.33;18.67;;;;;;;-143.48;88.56;118439.88;5078754;28;20036;-68
2023/01/21 00:22:52;;;;;;;40.90;18.15;;;;;;;-143.48;88.43;118439.88;5096939;28;20032;-68
2023/01/21 00:25:18;;;;;;;40.92;18.60;;;;;;;-143.48;88.35;118439.88;5096956;28;20025;-68
2023/01/21 00:27:43;;;;;;;42.85;18.10;;;;;;;-143.48;88.12;118439.88;5096758;28;20063;-68
2023/01/21 00:30:09;;;;;;;41.85;17.98;;;;;;;-143.48;88.24;118439.88;5096950;28;20086;-68
2023/01/21 00:32:35;;;;;;;49.30;17.80;;;;;;;-143.48;88.25;118439.88;5096790;28;20042;-68
2023/01/21 00:35:00;;;;;;;41.55;17.23;;;;;;;-143.48;88.22;118439.88;5096665;28;20020;-68
2023/01/21 00:37:25;;;;;;;53.17;18.58;;;;;;;-143.48;88.27;118439.88;5096693;28;20035;-68
2023/01/21 00:39:50;;;;;;;44.47;18.25;;;;;;;-143.48;88.40;118439.88;5096970;28;20447;-68
2023/01/21 00:42:16;;;;;;;44.10;18.27;;;;;;;-143.48;87.61;118439.88;5096624;28;20216;-68
2023/01/21 00:44:41;;;;;;;38.67;16.52;;;;;;;-143.48;88.41;118439.88;5096571;28;20356;-68
2023/01/21 00:47:06;;;;;;;39.17;16.98;;;;;;;-143.48;88.34;118439.88;5096477;28;20478;-68
2023/01/21 00:49:32;;;;;;;42.50;17.33;;;;;;;-143.48;88.03;118439.88;5096446;28;20502;-68
2023/01/21 00:51:58;;;;;;;44.45;17.90;;;;;;;-143.48;88.30;118439.88;5096435;28;20103;-68
2023/01/21 00:54:23;;;;;;;44.05;18.02;;;;;;;-143.48;88.35;118439.88;5096495;28;20031;-68
2023/01/21 00:56:49;;;;;;;42.22;17.73;;;;;;;-143.48;87.69;118439.88;5096382;28;20024;-68
2023/01/21 00:59:14;;;;;;;43.30;17.45;;;;;;;-143.48;88.26;118439.88;5078003;28;20019;-68
2023/01/21 01:01:40;;;;;;;43.45;17.35;;;;;;;-143.48;87.75;118439.88;5096212;28;20055;-67
2023/01/21 01:04:05;;;;;;;38.72;17.98;;;;;;;-143.48;87.80;118439.88;5077937;28;20024;-68
2023/01/21 01:06:31;;;;;;;44.95;16.92;;;;;;;-143.48;87.68;118439.88;5094715;28;20036;-67
2023/01/21 01:08:57;;;;;;;42.47;16.85;;;;;;;-143.48;88.20;118439.88;5096244;28;20074;-68
2023/01/21 01:11:25;;;;;;;42.80;17.35;;;;;;;-143.48;88.84;118439.88;5078060;28;20602;-68
2023/01/21 01:13:53;;;;;;;40.53;17.92;;;;;;;-143.48;88.73;118439.88;5095970;28;20024;-68
2023/01/21 01:16:20;;;;;;;43.97;17.92;;;;;;;-143.48;88.33;118439.88;5077814;28;20024;-68
2023/01/21 01:18:45;;;;;;;38.10;17.02;;;;;;;-143.48;88.60;118439.88;5077664;28;20036;-68
2023/01/21 01:21:13;;;;;;;41.28;16.90;;;;;;;-143.48;88.82;118439.88;5095718;28;20388;-68
2023/01/21 01:23:39;;;;;;;45.55;18.00;;;;;;;-143.48;88.56;118439.88;5077731;28;20052;-68
2023/01/21 01:26:07;;;;;;;42.90;17.55;;;;;;;-143.48;88.66;118439.88;5077550;28;20064;-68
2023/01/21 01:28:33;;;;;;;37.60;17.08;;;;;;;-143.48;88.68;118439.88;5077480;28;20020;-68
2023/01/21 01:30:59;;;;;;;42.83;17.15;;;;;;;-143.48;88.66;118439.88;5096241;28;20020;-68
2023/01/21 01:33:25;;;;;;;40.80;17.55;;;;;;;-143.48;88.91;118439.88;5095587;28;20526;-68
2023/01/21 01:35:50;;;;;;;39.60;17.20;;;;;;;-143.48;88.74;118439.88;5077732;28;20043;-68
2023/01/21 01:38:19;;;;;;;40.45;16.67;;;;;;;-143.48;88.53;118439.88;5077461;28;20024;-68
2023/01/21 01:40:45;;;;;;;39.15;16.75;;;;;;;-143.48;87.94;118439.88;5095619;28;20063;-68
2023/01/21 01:43:19;;;;;;;38.30;17.08;;;;;;;-143.48;88.54;118439.88;5095378;28;20035;-67
2023/01/21 01:45:46;;;;;;;40.17;16.88;;;;;;;-143.48;88.69;118439.88;5077191;28;20063;-68
2023/01/21 01:48:17;;;;;;;41.22;16.83;;;;;;;-143.48;88.72;118439.88;5077955;28;20391;-68
2023/01/21 01:50:43;;;;;;;40.40;17.58;;;;;;;-143.48;88.68;118439.88;5095567;28;20509;-68
2023/01/21 01:53:12;;;;;;;47.75;17.63;;;;;;;-143.48;88.85;118439.88;5095250;28;20032;-68
2023/01/21 01:55:38;;;;;;;42.30;17.25;;;;;;;-143.48;88.54;118439.88;5077148;28;20042;-68
2023/01/21 01:58:06;;;;;;;36.80;16.60;;;;;;;-143.48;88.77;118439.88;5095165;28;20035;-68
2023/01/21 02:00:33;;;;;;;38.90;16.90;;;;;;;-143.48;88.32;118439.88;5077059;28;20027;-68
2023/01/21 02:05:43;;;;;;;39.95;17.23;;;;;;;-143.48;88.97;118439.88;5095823;28;20462;-68
2023/01/21 02:08:09;;;;;;;40.30;17.77;;;;;;;-143.48;88.62;118439.88;5094896;28;20047;-68
2023/01/21 02:10:35;;;;;;;39.20;17.77;;;;;;;-143.48;87.54;118439.88;5095011;28;20023;-68
2023/01/21 02:13:01;;;;;;;37.47;16.88;;;;;;;-143.48;87.43;118439.88;5095012;28;20418;-68
2023/01/21 02:15:46;;;;;;;39.97;16.58;;;;;;;-143.48;87.86;118439.88;5094757;28;20027;-68
2023/01/21 02:18:32;;;;;;;35.95;16.13;;;;;;;-143.48;89.02;118439.88;5094265;28;20020;-68
2023/01/21 02:21:11;;;;;;;40.80;17.17;;;;;;;-143.48;89.22;118439.88;5094592;28;20048;-68
2023/01/21 02:23:55;;;;;;;43.15;17.15;;;;;;;-143.48;88.84;118439.88;5094656;28;20166;-68
2023/01/21 02:26:49;;;;;;;40.10;16.63;;;;;;;-143.48;88.77;118439.88;5094583;28;20067;-68
2023/01/21 02:29:40;;;;;;;37.33;16.55;;;;;;;-143.48;88.25;118439.88;5094354;28;20016;-68
2023/01/21 02:32:27;;;;;;;41.47;17.10;;;;;;;-143.48;88.82;118439.88;5076117;28;20056;-68
2023/01/21 02:35:22;;;;;;;41.63;16.50;;;;;;;-143.48;88.90;118439.88;5094354;28;20036;-68
2023/01/21 02:38:32;;;;;;;43.10;17.33;;;;;;;-143.48;89.35;118439.88;5094442;28;20396;-69
2023/01/21 02:41:17;;;;;;;40.40;17.05;;;;;;;-143.48;88.89;118439.88;5031970;28;20037;-68
2023/01/21 02:43:52;;;;;;;40.30;17.02;;;;;;;-143.48;89.16;118439.88;5031978;28;20026;-66
2023/01/21 02:46:25;;;;;;;38.97;17.25;;;;;;;-143.48;89.63;118439.88;5072920;28;20516;-68
2023/01/21 02:48:59;;;;;;;36.65;16.27;;;;;;;-143.48;88.96;118439.88;5094373;28;20162;-66
2023/01/21 02:51:24;;;;;;;43.33;17.27;;;;;;;-143.48;89.23;118439.88;5094415;28;20035;-69
2023/01/21 02:53:49;;;;;;;36.47;15.95;;;;;;;-143.48;89.61;118439.88;5094107;28;20027;-68
2023/01/21 02:56:20;;;;;;;38.58;16.58;;;;;;;-143.48;89.57;118439.88;5075901;28;20040;-68
2023/01/21 02:58:53;;;;;;;43.05;16.45;;;;;;;-143.48;89.41;118439.88;5093981;28;20028;-69
2023/01/21 03:01:37;;;;;;;37.50;16.48;;;;;;;-143.48;89.45;118439.88;5093985;28;20081;-68
2023/01/21 03:04:21;;;;;;;36.42;16.30;;;;;;;-143.48;89.81;118439.88;5093981;28;20387;-69
2023/01/21 03:07:19;;;;;;;40.22;16.60;;;;;;;-143.48;89.42;118439.88;5093868;28;20039;-69
2023/01/21 03:09:44;;;;;;;40.58;16.73;;;;;;;-143.48;89.34;118439.88;5093808;28;20056;-68
2023/01/21 03:13:04;;;;;;;36.85;16.73;;;;;;;-143.48;89.68;118439.88;5075797;28;20031;-68
2023/01/21 03:18:37;;;;;;;38.30;15.90;;;;;;;-143.48;89.54;118439.88;5093989;28;20129;-67
2023/01/21 03:21:09;;;;;;;39.85;16.80;;;;;;;-143.48;89.42;118439.88;5075305;28;20071;-67
2023/01/21 03:23:39;;;;;;;39.85;16.48;;;;;;;-143.48;90.04;118439.88;5093569;28;20356;-67
2023/01/21 03:26:07;;;;;;;37.67;16.35;;;;;;;-143.48;90.02;118439.88;5093529;28;20535;-67
2023/01/21 03:28:45;;;;;;;38.60;16.38;;;;;;;-143.48;90.43;118439.88;5075565;28;20642;-67
2023/01/21 03:31:16;;;;;;;42.15;17.00;;;;;;;-143.48;90.14;118439.88;5074645;28;20064;-67
2023/01/21 03:33:44;;;;;;;41.55;16.17;;;;;;;-143.48;90.57;118439.88;5093457;28;20083;-67
2023/01/21 03:36:25;;;;;;;40.75;17.63;;;;;;;-143.48;90.27;118439.88;5075236;28;20015;-67
2023/01/21 03:38:54;;;;;;;39.10;17.17;;;;;;;-143.48;89.91;118439.88;5075264;28;20093;-67
2023/01/21 03:41:27;;;;;;;38.28;15.85;;;;;;;-143.48;89.80;118439.88;5093392;28;20031;-68
2023/01/21 03:43:52;;;;;;;37.05;15.70;;;;;;;-143.48;89.83;118439.88;5093475;28;20115;-68
2023/01/21 03:46:23;;;;;;;40.17;17.35;;;;;;;-143.48;90.17;118439.88;5093468;28;20099;-68
2023/01/21 03:48:52;;;;;;;41.67;17.25;;;;;;;-143.48;89.65;118439.88;5093288;28;20102;-68
2023/01/21 03:51:31;;;;;;;40.78;17.17;;;;;;;-143.48;89.98;118439.88;5093275;28;20028;-68
2023/01/21 03:53:58;;;;;;;41.78;17.50;;;;;;;-143.48;90.17;118439.88;5093449;28;20508;-68
2023/01/21 03:56:25;;;;;;;39.47;17.05;;;;;;;-143.48;89.76;118439.88;5093104;28;20016;-68
2023/01/21 03:58:50;;;;;;;41.35;17.10;;;;;;;-143.48;89.64;118439.88;5093258;28;20051;-68
2023/01/21 04:01:15;;;;;;;43.88;17.13;;;;;;;-143.48;90.81;118439.88;5093343;28;20062;-68
2023/01/21 04:03:42;;;;;;;40.92;17.60;;;;;;;-143.48;91.00;118439.88;5093133;28;20110;-68
2023/01/21 04:06:15;;;;;;;40.75;16.70;;;;;;;-143.48;90.73;118439.88;5093172;28;20020;-68
2023/01/21 04:08:41;;;;;;;40.65;16.90;;;;;;;-143.48;90.27;118439.88;5093056;28;20027;-68
2023/01/21 04:11:06;;;;;;;44.42;17.10;;;;;;;-143.48;90.14;118439.88;5075066;28;20032;-68
2023/01/21 04:13:31;;;;;;;41.42;16.80;;;;;;;-143.48;89.80;118439.88;5093147;28;20024;-68
2023/01/21 04:15:57;;;;;;;37.58;16.55;;;;;;;-143.48;89.49;118439.88;5093107;28;20495;-68
2023/01/21 04:18:22;;;;;;;39.92;16.38;;;;;;;-143.48;89.58;118439.88;5092901;28;20031;-68
2023/01/21 04:20:47;;;;;;;37.70;16.17;;;;;;;-143.48;89.64;118439.88;5092906;28;20495;-68
2023/01/21 04:23:13;;;;;;;41.55;16.45;;;;;;;-143.48;89.43;118439.88;5092974;28;20395;-68
2023/01/21 04:25:38;;;;;;;39.72;16.88;;;;;;;-143.48;90.02;118439.88;5074694;28;20024;-68
2023/01/21 04:28:03;;;;;;;39.97;17.02;;;;;;;-143.48;90.36;118439.88;5074851;28;20020;-67
2023/01/21 04:30:29;;;;;;;38.40;17.52;;;;;;;-143.48;90.11;118439.88;5092971;28;20156;-67
2023/01/21 04:32:54;;;;;;;36.55;16.45;;;;;;;-143.48;90.07;118439.88;5092936;28;20020;-69
2023/01/21 04:35:19;;;;;;;39.58;16.67;;;;;;;-143.48;90.30;118439.88;5092944;28;20020;-67
2023/01/21 04:37:44;;;;;;;38.35;16.73;;;;;;;-143.48;90.20;118439.88;5075025;28;20165;-68
2023/01/21 04:40:10;;;;;;;36.03;16.08;;;;;;;-143.48;90.32;118439.88;5092851;28;20031;-67
2023/01/21 04:42:36;;;;;;;39.90;16.42;;;;;;;-143.48;90.34;118439.88;5096190;28;20020;-68
2023/01/21 04:45:01;;;;;;;41.88;16.73;;;;;;;-143.48;90.39;118439.88;5096498;28;20024;-68
2023/01/21 04:47:26;;;;;;;39.10;17.00;;;;;;;-143.48;89.68;118439.88;5096520;28;20111;-67
2023/01/21 04:49:52;;;;;;;37.38;16.17;;;;;;;-143.48;89.84;118439.88;5096731;28;20475;-67
2023/01/21 04:52:17;;;;;;;48.65;18.27;;;;;;;-143.48;89.77;118439.88;5078326;28;20119;-67
2023/01/21 04:54:43;;;;;;;38.00;17.42;;;;;;;-143.48;90.03;118439.88;5078200;28;20027;-68
2023/01/21 04:57:09;;;;;;;39.13;16.92;;;;;;;-143.48;90.12;118439.88;5096469;28;20024;-68
2023/01/21 04:59:35;;;;;;;38.22;17.27;;;;;;;-143.48;90.09;118439.88;5078255;28;20039;-68
2023/01/21 05:02:00;;;;;;;39.50;17.63;;;;;;;-143.48;90.89;118439.88;5096185;28;20044;-68
2023/01/21 05:04:25;;;;;;;41.13;17.42;;;;;;;-143.48;90.69;118439.88;5096161;28;20028;-68
2023/01/21 05:06:50;;;;;;;42.20;17.42;;;;;;;-143.48;90.61;118439.88;5077929;28;20131;-68
2023/01/21 05:09:16;;;;;;;39.42;16.95;;;;;;;-143.48;90.90;118439.88;5077877;28;20028;-68
2023/01/21 05:11:41;;;;;;;38.35;16.90;;;;;;;-143.48;90.57;118439.88;5096151;28;20059;-67
2023/01/21 05:14:06;;;;;;;41.63;16.98;;;;;;;-143.48;89.60;118439.88;5095924;28;20032;-67
2023/01/21 05:16:32;;;;;;;42.30;16.73;;;;;;;-143.48;89.33;118439.88;5096108;28;20103;-67
2023/01/21 05:18:57;;;;;;;41.58;16.67;;;;;;;-143.48;89.12;118439.88;5095973;28;20020;-68
2023/01/21 05:21:22;;;;;;;44.03;17.10;;;;;;;-143.48;89.45;118439.88;5095767;28;20056;-68
2023/01/21 05:23:48;;;;;;;42.28;16.85;;;;;;;-143.48;89.54;118439.88;5095890;28;20378;-67
2023/01/21 05:26:13;;;;;;;39.90;16.83;;;;;;;-143.48;89.30;118439.88;5095844;28;20391;-68
2023/01/21 05:28:38;;;;;;;43.03;17.45;;;;;;;-143.48;89.42;118439.88;5095847;28;20053;-68
2023/01/21 05:31:04;;;;;;;42.33;17.60;;;;;;;-143.48;89.42;118439.88;5077409;28;20387;-67
2023/01/21 05:33:33;;;;;;;38.72;17.08;;;;;;;-143.48;89.65;118439.88;5077514;28;20479;-68
2023/01/21 05:36:00;;;;;;;39.88;17.75;;;;;;;-143.48;89.47;118439.88;5095564;28;20023;-67
2023/01/21 05:38:25;;;;;;;39.85;17.02;;;;;;;-143.48;89.79;118439.88;5095629;28;20032;-68
2023/01/21 05:40:56;;;;;;;45.83;17.52;;;;;;;-143.48;89.99;118439.88;5095716;28;20495;-67
2023/01/21 05:43:21;;;;;;;36.47;16.38;;;;;;;-143.48;89.10;118439.88;5095503;28;20391;-68
2023/01/21 05:45:46;;;;;;;40.53;16.92;;;;;;;-143.48;89.32;118439.88;5097379;28;20070;-67
2023/01/21 05:48:12;;;;;;;49.20;18.10;;;;;;;-143.48;89.06;118439.88;5077454;28;20120;-68
2023/01/21 05:50:37;;;;;;;39.38;17.75;;;;;;;-143.48;89.66;118439.88;5095350;28;20020;-67
2023/01/21 05:53:03;;;;;;;44.83;17.50;;;;;;;-143.48;90.25;118439.88;5076649;28;20028;-68
2023/01/21 05:55:29;;;;;;;43.20;17.90;;;;;;;-143.48;89.41;118439.88;5095276;28;20020;-68
2023/01/21 05:57:54;;;;;;;41.92;18.50;;;;;;;-143.48;89.23;118439.88;5095294;28;20024;-68
2023/01/21 06:00:20;;;;;;;40.22;17.88;;;;;;;-143.48;89.42;118439.88;5095130;28;20103;-68
2023/01/21 06:02:45;;;;;;;41.42;18.00;;;;;;;-143.48;90.15;118439.88;5095242;28;20028;-68
2023/01/21 06:05:10;;;;;;;40.33;16.38;;;;;;;-143.48;89.47;118439.88;5076935;28;20080;-68
2023/01/21 06:07:35;;;;;;;47.30;18.25;;;;;;;-143.48;89.23;118439.88;5095016;28;20020;-68
2023/01/21 06:10:01;;;;;;;45.33;17.30;;;;;;;-143.48;89.39;118439.88;5095215;28;20028;-68
2023/01/21 06:12:26;;;;;;;44.17;18.45;;;;;;;-143.48;89.64;118439.88;5094985;28;20023;-68
2023/01/21 06:14:51;;;;;;;42.55;17.75;;;;;;;-143.48;90.25;118439.88;5095383;28;20024;-68
2023/01/21 06:17:16;;;;;;;43.38;17.75;;;;;;;-143.48;89.35;118439.88;5094970;28;20486;-68
2023/01/21 06:19:42;;;;;;;47.60;17.60;;;;;;;-143.48;89.60;118439.88;5076415;28;20044;-68
2023/01/21 06:22:13;;;;;;;43.88;17.52;;;;;;;-143.48;89.84;118439.88;5094800;28;20028;-68
2023/01/21 06:24:38;;;;;;;47.20;18.27;;;;;;;-143.48;89.94;118439.88;5094856;28;20027;-68
2023/01/21 06:27:03;;;;;;;48.92;18.83;;;;;;;-143.48;90.95;118439.88;5095111;28;20016;-68
2023/01/21 06:29:29;;;;;;;48.30;18.77;;;;;;;-143.48;91.81;118439.88;5094877;28;20024;-68
2023/01/21 06:31:54;;;;;;;53.60;20.00;;;;;;;-143.48;92.58;118439.88;5076590;28;20059;-68
2023/01/21 06:34:19;;;;;;;50.58;18.85;;;;;;;-143.48;91.98;118439.88;5094859;28;20077;-68
2023/01/21 06:36:45;;;;;;;50.85;18.75;;;;;;;-143.48;92.54;118439.88;5076936;28;20471;-68
2023/01/21 06:39:10;;;;;;;53.65;20.25;;;;;;;-143.48;92.53;118439.88;5095267;28;20101;-68
2023/01/21 06:41:36;;;;;;;110.15;19.92;;;;;;;-143.48;91.88;118439.88;5109860;28;20049;-69
2023/01/21 06:44:02;;;;;;;67.82;19.38;;;;;;;-143.48;93.87;118439.88;5113731;28;20019;-69
2023/01/21 06:46:27;;;;;;;74.97;19.02;;;;;;;-143.48;93.28;118439.88;5078365;28;20476;-68
2023/01/21 06:48:53;;;;;;;132.23;18.98;;;;;;;-143.48;93.36;118439.88;5095927;28;20043;-68
2023/01/21 06:51:18;;;;;;;62.75;18.17;;;;;;;-143.48;94.66;118439.88;5077708;28;20475;-68
2023/01/21 06:53:43;;;;;;;54.72;18.83;;;;;;;-143.48;94.36;118439.88;5098467;28;20047;-68
2023/01/21 06:56:09;;;;;;;82.25;20.33;;;;;;;-143.48;93.88;118439.88;5077589;28;20066;-69
2023/01/21 06:58:34;;;;;;;169.45;20.10;;;;;;;-143.48;93.87;118439.88;5096780;28;20393;-69
2023/01/21 07:00:59;;;;;;;173.90;21.08;;;;;;;-143.48;94.82;118439.88;5081228;28;20364;-69
2023/01/21 07:03:25;;;;;;;106.13;18.02;;;;;;;-143.48;94.95;118439.88;5086362;28;20401;-68
2023/01/21 07:05:50;;;;;;;86.68;19.08;;;;;;;-143.48;94.15;118439.88;5086497;28;20031;-69
2023/01/21 07:08:15;;;;;;;80.63;19.15;;;;;;;-143.48;93.82;118439.88;5108286;28;20035;-69
2023/01/21 07:10:41;;;;;;;94.07;21.85;;;;;;;-143.48;94.07;118439.88;5105190;28;20024;-68
2023/01/21 07:13:06;;;;;;;161.40;20.08;;;;;;;-143.48;94.36;118439.88;5105672;28;20417;-68
2023/01/21 07:15:31;;;;;;;144.95;17.63;;;;;;;-143.48;94.95;118439.88;5087084;28;20024;-68
2023/01/21 07:17:57;;;;;;;149.32;20.27;;;;;;;-143.48;95.67;118439.88;5104825;28;20012;-69
2023/01/21 07:20:22;;;;;;;150.23;20.38;;;;;;;-143.48;95.87;118439.88;5105959;28;20411;-70
2023/01/21 07:22:47;;;;;;;158.02;20.00;;;;;;;-143.48;95.95;118439.88;5110865;28;20036;-70
2023/01/21 07:25:13;;;;;;;129.50;20.33;;;;;;;-143.48;95.45;118439.88;5109267;28;20039;-69
2023/01/21 07:27:40;;;;;;;152.25;19.85;;;;;;;-143.48;95.13;118439.88;5110680;28;20024;-70
2023/01/21 07:30:06;;;;;;;173.48;20.27;;;;;;;-143.48;95.03;118439.88;5092215;28;20035;-69
2023/01/21 07:32:31;;;;;;;210.35;22.42;;;;;;;-143.48;94.92;118439.88;5091810;28;20091;-69
2023/01/21 07:34:57;;;;;;;101.03;21.23;;;;;;;-143.48;94.72;118439.88;5103542;28;20058;-69
2023/01/21 07:37:22;;;;;;;167.60;21.67;;;;;;;-143.48;94.35;118439.88;5079309;28;20050;-69
2023/01/21 07:39:47;;;;;;;100.15;19.65;;;;;;;-143.48;94.79;118439.88;5094604;28;20107;-69
2023/01/21 07:42:13;;;;;;;161.40;22.55;;;;;;;-143.48;94.86;118439.88;5094458;28;20395;-69
2023/01/21 07:44:38;;;;;;;114.40;18.13;;;;;;;-143.48;95.55;118439.88;5094649;28;20485;-69
2023/01/21 07:47:03;;;;;;;188.43;21.83;;;;;;;-143.48;95.29;118439.88;5094322;28;20024;-69
2023/01/21 07:49:29;;;;;;;117.78;21.00;;;;;;;-143.48;94.77;118439.88;5076231;28;20059;-68
2023/01/21 07:51:57;;;;;;;127.57;19.00;;;;;;;-143.48;94.69;118439.88;5076345;28;20036;-68
2023/01/21 07:54:23;;;;;;;124.55;21.30;;;;;;;-143.48;94.56;118439.88;5094300;28;20099;-68
2023/01/21 07:56:48;;;;;;;179.75;21.58;;;;;;;-143.48;94.36;118439.88;5094001;28;20103;-69
2023/01/21 07:59:13;;;;;;;127.60;18.95;;;;;;;-143.48;95.04;118439.88;5075484;28;20024;-69
2023/01/21 08:01:39;;;;;;;147.55;20.52;;;;;;;-143.48;95.90;118439.88;5076354;28;20383;-68
2023/01/21 08:04:06;;;;;;;71.05;19.23;;;;;;;-143.48;95.96;118439.88;5080174;28;20016;-68
2023/01/21 08:06:32;;;;;;;181.77;19.35;;;;;;;-143.48;95.96;118439.88;5093859;28;20106;-68
2023/01/21 08:08:57;;;;;;;137.85;18.15;;;;;;;-143.48;96.13;118439.88;5093367;28;20052;-68
2023/01/21 08:11:22;;;;;;;119.47;19.33;;;;;;;-143.48;95.29;118439.88;5093361;28;20077;-68
2023/01/21 08:13:49;;;;;;;189.77;22.40;;;;;;;-143.48;94.00;118439.88;5075324;28;20031;-68
2023/01/21 08:16:14;;;;;;;106.80;19.58;;;;;;;-143.48;94.56;118439.88;5094679;28;20103;-68
2023/01/21 08:18:40;;;;;;;171.98;20.02;;;;;;;-143.48;94.92;118439.88;5079078;28;20454;-69
2023/01/21 08:21:05;;;;;;;106.43;19.25;;;;;;;-143.48;95.24;118439.88;5078742;28;20131;-68
2023/01/21 08:23:31;;;;;;;122.88;18.02;;;;;;;-143.48;95.03;118439.88;5079016;28;20073;-68
2023/01/21 08:26:01;;;;;;;101.10;17.35;;;;;;;-143.48;95.48;118439.88;5097272;28;20429;-68
2023/01/21 08:28:26;;;;;;;83.82;19.10;;;;;;;-143.48;96.27;118439.88;5079143;28;20032;-68
2023/01/21 08:30:51;;;;;;;112.47;20.60;;;;;;;-143.48;96.11;118439.88;5097087;28;20043;-67
2023/01/21 08:33:17;;;;;;;128.68;22.92;;;;;;;-143.48;95.42;118439.88;5097077;28;20107;-68
2023/01/21 08:35:42;;;;;;;140.57;20.88;;;;;;;-143.48;94.82;118439.88;5097042;28;20183;-67
2023/01/21 08:38:07;;;;;;;134.75;21.92;;;;;;;-143.48;95.48;118439.88;5096921;28;20028;-68
2023/01/21 08:40:33;;;;;;;138.75;22.42;;;;;;;-143.48;95.91;118439.88;5096760;28;20168;-68
2023/01/21 08:43:00;;;;;;;129.98;18.10;;;;;;;-143.48;96.29;118439.88;5078418;28;20030;-68
2023/01/21 08:45:26;;;;;;;170.95;22.27;;;;;;;-143.48;96.54;118439.88;5096474;28;20061;-67
2023/01/21 08:47:51;;;;;;;87.57;19.50;;;;;;;-143.48;96.55;118439.88;5096639;28;20107;-68
2023/01/21 08:50:18;;;;;;;116.13;19.23;;;;;;;-143.48;96.48;118439.88;5096594;28;20551;-67
2023/01/21 08:52:52;;;;;;;108.40;20.67;;;;;;;-143.48;96.03;118439.88;5096351;28;20028;-68
2023/01/21 08:55:18;;;;;;;93.10;20.30;;;;;;;-143.48;95.89;118439.88;5096611;28;20107;-68
2023/01/21 08:57:43;;;;;;;197.15;24.17;;;;;;;-143.48;95.86;118439.88;5096290;28;20499;-68
2023/01/21 09:00:10;;;;;;;160.35;21.55;;;;;;;-143.48;95.70;118439.88;5095791;28;20056;-67
2023/01/21 09:02:35;;;;;;;99.30;21.35;;;;;;;-143.48;95.85;118439.88;5095812;28;20412;-68
2023/01/21 09:05:00;;;;;;;176.05;22.85;;;;;;;-143.48;95.59;118439.88;5095567;28;20031;-68
2023/01/21 09:07:25;;;;;;;136.60;21.92;;;;;;;-143.48;95.54;118439.88;5095907;28;20382;-68
2023/01/21 09:09:51;;;;;;;87.72;21.80;;;;;;;-143.48;95.67;118439.88;5095566;28;20024;-68
2023/01/21 09:12:16;;;;;;;75.45;20.83;;;;;;;-143.48;95.59;118439.88;5095638;28;20359;-68
2023/01/21 09:14:41;;;;;;;68.15;20.85;;;;;;;-143.48;95.29;118439.88;5077671;28;20039;-68
2023/01/21 09:17:07;;;;;;;60.20;21.02;;;;;;;-143.48;94.80;118439.88;5096052;28;20024;-68
2023/01/21 09:19:32;;;;;;;77.88;20.27;;;;;;;-143.48;93.94;118439.88;5077531;28;20043;-68
2023/01/21 09:21:57;;;;;;;54.70;18.83;;;;;;;-143.48;93.69;118439.88;5096231;28;20028;-68
2023/01/21 09:24:23;;;;;;;53.20;19.88;;;;;;;-143.48;92.73;118439.88;5095967;28;20031;-68
2023/01/21 09:26:49;;;;;;;59.47;20.00;;;;;;;-143.48;92.05;118439.88;5095806;28;20027;-68
2023/01/21 09:29:14;;;;;;;53.35;18.95;;;;;;;-143.48;92.34;118439.88;5094843;28;20032;-68
2023/01/21 09:31:39;;;;;;;59.92;20.88;;;;;;;-143.48;92.19;118439.88;5096090;28;20016;-68
2023/01/21 09:34:05;;;;;;;51.80;19.65;;;;;;;-143.48;91.64;118439.88;5077557;28;20379;-68
2023/01/21 09:36:32;;;;;;;50.05;18.70;;;;;;;-143.48;90.48;118439.88;5095597;28;20064;-68
2023/01/21 09:38:58;;;;;;;54.97;19.85;;;;;;;-143.48;90.89;118439.88;5096200;28;20024;-68
2023/01/21 09:41:50;;;;;;;48.47;18.42;;;;;;;-143.48;90.69;118439.88;5095650;28;20475;-67
2023/01/21 09:44:29;;;;;;;44.03;17.60;;;;;;;-143.48;90.69;118439.88;5077510;28;20064;-67
2023/01/21 09:47:01;;;;;;;50.08;17.65;;;;;;;-143.48;90.12;118439.88;5095396;28;20119;-67
2023/01/21 09:49:33;;;;;;;54.13;19.25;;;;;;;-143.48;90.94;118439.88;5095662;28;20359;-68
2023/01/21 09:52:17;;;;;;;49.90;18.00;;;;;;;-143.48;91.77;118439.88;5077344;28;20016;-67
2023/01/21 09:54:43;;;;;;;48.55;17.98;;;;;;;-143.48;91.25;118439.88;5077074;28;20024;-67
2023/01/21 09:57:32;;;;;;;49.22;18.30;;;;;;;-143.48;90.11;118439.88;5077197;28;20165;-68
2023/01/21 10:00:25;;;;;;;48.67;18.27;;;;;;;-143.48;89.05;118439.88;5095554;28;20099;-67
2023/01/21 10:02:51;;;;;;;51.53;18.95;;;;;;;-143.48;89.26;118439.88;5095410;28;20433;-67
2023/01/21 10:05:18;;;;;;;46.08;17.55;;;;;;;-143.48;90.04;118439.88;5095216;28;20028;-67
2023/01/21 10:07:53;;;;;;;55.10;18.80;;;;;;;-143.48;90.20;118439.88;5095047;28;20494;-68
2023/01/21 10:10:38;;;;;;;55.70;19.33;;;;;;;-143.48;89.93;118439.88;5094975;28;20027;-67
2023/01/21 10:13:13;;;;;;;46.92;18.33;;;;;;;-143.48;89.88;118439.88;5095045;28;20036;-67
2023/01/21 10:15:53;;;;;;;49.60;17.42;;;;;;;-143.48;89.26;118439.88;5095305;28;20144;-66
2023/01/21 10:18:24;;;;;;;53.30;19.02;;;;;;;-143.48;87.42;118439.88;5094830;28;20032;-67
2023/01/21 10:21:03;;;;;;;47.53;19.17;;;;;;;-143.48;89.36;118439.88;5094657;28;20044;-67
2023/01/21 10:23:41;;;;;;;51.63;18.10;;;;;;;-143.48;89.69;118439.88;5094761;28;20451;-66
2023/01/21 10:26:10;;;;;;;44.83;17.85;;;;;;;-143.48;88.32;118439.88;5094682;28;20024;-67
2023/01/21 10:28:39;;;;;;;47.92;16.83;;;;;;;-143.48;88.58;118439.88;5094736;28;20024;-66
2023/01/21 10:31:17;;;;;;;48.33;17.85;;;;;;;-143.48;88.69;118439.88;5094444;28;20499;-67
2023/01/21 10:33:43;;;;;;;48.60;18.50;;;;;;;-143.48;88.86;118439.88;5094672;28;20030;-67
2023/01/21 10:36:37;;;;;;;43.42;16.63;;;;;;;-143.48;88.30;118439.88;5094479;28;20103;-67
2023/01/21 10:39:14;;;;;;;47.00;17.95;;;;;;;-143.48;88.61;118439.88;5070450;28;20040;-67
2023/01/21 10:41:58;;;;;;;52.22;16.67;;;;;;;-143.48;88.94;118439.88;5094838;28;20020;-68
2023/01/21 10:44:48;;;;;;;51.42;18.63;;;;;;;-143.48;89.72;118439.88;5095191;28;20032;-67
2023/01/21 10:47:21;;;;;;;44.90;17.17;;;;;;;-143.48;88.64;118439.88;5094186;28;20069;-68
2023/01/21 10:50:06;;;;;;;45.42;17.42;;;;;;;-143.48;88.78;118439.88;5076645;28;20047;-68
2023/01/21 10:52:41;;;;;;;45.20;16.65;;;;;;;-143.48;88.64;118439.88;5094473;28;20101;-69
2023/01/21 10:55:43;;;;;;;45.15;17.45;;;;;;;-143.48;87.68;118439.88;5094306;28;20024;-71
2023/01/21 10:58:25;;;;;;;51.40;18.05;;;;;;;-143.48;88.42;118439.88;5094026;28;20051;-67
2023/01/21 11:00:53;;;;;;;46.38;18.05;;;;;;;-143.48;88.02;118439.88;5094055;28;20024;-66
2023/01/21 11:03:24;;;;;;;51.58;18.95;;;;;;;-143.48;86.61;118439.88;5094116;28;20031;-67
2023/01/21 11:05:49;;;;;;;50.85;18.13;;;;;;;-143.48;87.05;118439.88;5093954;28;20032;-67